Time;durP1;ratioP1;P1;durP2;ratioP2;P2;SDS_P1;SDS_P2;PMS_P1;PMS_P2;Temp;Humidity;BMP_temperature;BMP_pressure;BME280_temperature;BME280_humidity;BME280_pressure;Samples;Min_cycle;Max_cycle;Signal;HPM_P1;HPM_P2
2022/12/25 00:00:30;;;;;;;2.25;2.05;;;;;;;8.88;nan;-24065.06;5014603;28;20658;-72
2022/12/25 00:02:55;;;;;;;2.83;1.95;;;;;;;8.71;nan;-24060.41;5014310;28;20236;-71
2022/12/25 00:05:21;;;;;;;2.70;1.63;;;;;;;8.86;nan;-24064.50;5013823;28;20273;-71
2022/12/25 00:07:46;;;;;;;2.60;2.00;;;;;;;8.53;nan;-24055.31;5013264;28;20183;-71
2022/12/25 00:10:11;;;;;;;2.05;1.85;;;;;;;8.99;nan;-24068.03;5014084;28;20186;-71
2022/12/25 00:12:37;;;;;;;4.05;1.70;;;;;;;8.93;nan;-24066.34;5013923;28;20172;-71
2022/12/25 00:15:03;;;;;;;2.35;1.75;;;;;;;9.07;nan;-24070.44;5014155;28;20176;-72
2022/12/25 00:17:29;;;;;;;1.50;1.40;;;;;;;9.49;nan;-24082.03;5014080;28;20663;-71
2022/12/25 00:19:54;;;;;;;3.20;1.88;;;;;;;9.66;nan;-24086.97;5014186;28;20186;-71
2022/12/25 00:22:19;;;;;;;1.67;1.58;;;;;;;9.47;nan;-24081.47;5014438;28;20184;-71
2022/12/25 00:24:48;;;;;;;5.40;1.95;;;;;;;9.29;nan;-24076.53;5014747;28;20215;-71
2022/12/25 00:27:14;;;;;;;1.50;1.40;;;;;;;9.47;nan;-24081.63;5012870;28;20262;-71
2022/12/25 00:29:39;;;;;;;2.17;1.73;;;;;;;9.69;nan;-24087.69;5014122;28;20691;-72
2022/12/25 00:32:05;;;;;;;1.73;1.63;;;;;;;9.71;nan;-24088.25;5014217;28;20603;-72
2022/12/25 00:34:30;;;;;;;1.92;1.70;;;;;;;9.34;nan;-24077.81;5014104;28;20169;-71
2022/12/25 00:36:56;;;;;;;2.05;1.85;;;;;;;9.62;nan;-24085.72;5013908;28;20172;-72
2022/12/25 00:39:21;;;;;;;2.28;1.77;;;;;;;9.50;nan;-24082.47;5014486;28;20646;-71
2022/12/25 00:44:30;;;;;;;1.30;1.20;;;;;;;9.48;nan;-24081.75;5013474;28;20226;-71
2022/12/25 00:46:56;;;;;;;1.63;1.50;;;;;;;9.20;nan;-24074.00;5013397;28;20215;-71
2022/12/25 00:49:22;;;;;;;2.72;1.73;;;;;;;9.53;nan;-24083.16;5013817;28;20179;-71
2022/12/25 00:51:49;;;;;;;2.75;1.40;;;;;;;9.31;nan;-24077.09;5013573;28;20195;-71
2022/12/25 00:54:14;;;;;;;3.35;2.00;;;;;;;9.62;nan;-24085.72;5013759;28;20710;-71
2022/12/25 00:56:39;;;;;;;2.05;1.30;;;;;;;9.52;nan;-24083.03;5014218;28;20176;-72
2022/12/25 00:59:05;;;;;;;3.00;1.70;;;;;;;9.24;nan;-24075.25;5013509;28;20184;-71
2022/12/25 01:01:31;;;;;;;1.83;1.73;;;;;;;9.26;nan;-24075.81;5013641;28;20255;-72
2022/12/25 01:03:57;;;;;;;1.58;1.48;;;;;;;9.19;nan;-24073.72;5013255;28;20675;-71
2022/12/25 01:06:23;;;;;;;3.30;1.90;;;;;;;9.13;nan;-24072.00;5013363;28;20208;-72
2022/12/25 01:11:32;;;;;;;1.57;1.40;;;;;;;5.31;nan;-23964.94;5013000;28;20249;-72
2022/12/25 01:13:58;;;;;;;1.90;1.70;;;;;;;8.90;nan;-24065.50;5013388;28;20251;-71
2022/12/25 01:16:24;;;;;;;2.47;2.08;;;;;;;8.69;nan;-24059.84;5013581;28;20184;-71
2022/12/25 01:18:49;;;;;;;2.03;1.83;;;;;;;8.62;nan;-24057.72;5013227;28;20632;-71
2022/12/25 01:21:16;;;;;;;1.83;1.70;;;;;;;8.49;nan;-24054.19;5013346;28;20642;-71
2022/12/25 01:23:43;;;;;;;1.80;1.70;;;;;;;8.37;nan;-24050.78;5012954;28;20702;-72
2022/12/25 01:26:11;;;;;;;1.63;1.53;;;;;;;8.35;nan;-24050.38;5012712;28;20275;-71
2022/12/25 01:28:37;;;;;;;1.93;1.70;;;;;;;8.50;nan;-24054.47;5013329;28;20168;-71
2022/12/25 01:31:04;;;;;;;1.73;1.60;;;;;;;8.22;nan;-24046.53;5012978;28;20176;-71
2022/12/25 01:33:30;;;;;;;3.03;1.63;;;;;;;8.28;nan;-24048.22;5013220;28;20164;-71
2022/12/25 01:35:56;;;;;;;2.13;1.73;;;;;;;8.71;nan;-24060.25;5012977;28;20183;-71
2022/12/25 01:38:22;;;;;;;1.67;1.57;;;;;;;8.58;nan;-24056.72;5012921;28;20211;-71
2022/12/25 01:40:47;;;;;;;2.53;1.80;;;;;;;8.27;nan;-24047.94;5012640;28;20211;-72
2022/12/25 01:43:30;;;;;;;1.20;1.20;;;;;;;8.24;nan;-24047.09;5013151;28;20265;-71
2022/12/25 01:45:56;;;;;;;2.93;1.80;;;;;;;8.12;nan;-24043.69;5012791;28;20196;-71
2022/12/25 01:48:32;;;;;;;2.63;1.87;;;;;;;8.13;nan;-24044.13;5012639;28;20180;-71
2022/12/25 01:51:04;;;;;;;2.47;1.50;;;;;;;7.97;nan;-24039.59;5012858;28;20263;-71
2022/12/25 01:53:30;;;;;;;1.63;1.53;;;;;;;8.16;nan;-24044.97;5012779;28;20187;-71
2022/12/25 01:56:02;;;;;;;1.97;1.73;;;;;;;8.04;nan;-24041.56;5012777;28;20262;-71
2022/12/25 01:58:28;;;;;;;1.83;1.70;;;;;;;7.61;nan;-24029.41;5012574;28;20659;-71
2022/12/25 02:00:53;;;;;;;1.93;1.70;;;;;;;7.49;nan;-24026.28;5012427;28;20549;-71
2022/12/25 02:03:20;;;;;;;1.73;1.63;;;;;;;7.44;nan;-24024.72;5017018;28;20711;-72
2022/12/25 02:05:47;;;;;;;1.83;1.73;;;;;;;7.43;nan;-24024.56;5012361;28;20211;-71
2022/12/25 02:08:16;;;;;;;1.83;1.70;;;;;;;7.40;nan;-24023.59;5014152;28;20187;-71
2022/12/25 02:10:43;;;;;;;2.00;1.80;;;;;;;7.39;nan;-24023.31;5012354;28;20271;-71
2022/12/25 02:13:11;;;;;;;3.50;1.87;;;;;;;7.53;nan;-24027.41;5012406;28;20199;-71
2022/12/25 02:16:09;;;;;;;1.67;1.57;;;;;;;7.72;nan;-24032.66;5012554;28;20630;-71
2022/12/25 02:18:55;;;;;;;1.77;1.60;;;;;;;7.69;nan;-24031.66;5012511;28;20186;-71
2022/12/25 02:21:23;;;;;;;1.70;1.60;;;;;;;7.69;nan;-24031.81;5011211;28;20180;-71
2022/12/25 02:24:10;;;;;;;1.97;1.80;;;;;;;7.79;nan;-24034.50;5012308;28;20239;-71
2022/12/25 02:26:44;;;;;;;3.23;1.60;;;;;;;7.51;nan;-24026.84;5012151;28;20211;-71
2022/12/25 02:29:47;;;;;;;1.93;1.63;;;;;;;7.83;nan;-24035.78;5011892;28;20647;-72
2022/12/25 02:32:17;;;;;;;2.60;1.77;;;;;;;7.94;nan;-24038.88;5012006;28;20203;-71
2022/12/25 02:34:51;;;;;;;1.93;1.50;;;;;;;8.05;nan;-24041.72;5011701;28;20624;-71
2022/12/25 02:37:27;;;;;;;1.60;1.50;;;;;;;8.01;nan;-24040.72;5012194;28;20172;-71
2022/12/25 02:40:07;;;;;;;2.03;1.63;;;;;;;7.98;nan;-24040.03;5012256;28;20164;-71
2022/12/25 03:08:08;;;;;;;3.00;2.10;;;;;;;8.39;nan;-24051.34;5011930;28;20192;-71
2022/12/25 03:13:27;;;;;;;2.70;1.93;;;;;;;8.92;nan;-24066.22;5011907;28;20218;-71
2022/12/25 03:18:37;;;;;;;2.10;1.90;;;;;;;8.75;nan;-24061.53;5011490;28;20171;-71
2022/12/25 03:26:55;;;;;;;1.70;1.60;;;;;;;8.47;nan;-24053.47;5012164;28;20199;-71
2022/12/25 03:32:39;;;;;;;2.23;1.90;;;;;;;8.68;nan;-24059.41;5010074;28;20208;-71
2022/12/25 03:35:24;;;;;;;2.03;1.83;;;;;;;8.42;nan;-24052.34;5011921;28;20176;-71
2022/12/25 04:36:44;;;;;;;2.93;1.90;;;;;;;7.67;nan;-24031.09;5014242;28;20646;-70
2022/12/25 04:39:09;;;;;;;2.30;1.97;;;;;;;7.80;nan;-24034.78;5013983;28;20180;-70
2022/12/25 04:41:35;;;;;;;2.77;2.00;;;;;;;7.93;nan;-24038.59;5013686;28;20187;-70
2022/12/25 04:44:00;;;;;;;2.17;1.97;;;;;;;7.72;nan;-24032.66;5012158;28;20618;-70
2022/12/25 04:46:26;;;;;;;3.00;2.03;;;;;;;7.67;nan;-24031.09;5013662;28;20238;-70
2022/12/25 04:48:51;;;;;;;3.60;2.50;;;;;;;7.74;nan;-24033.22;5013837;28;20171;-71
2022/12/25 04:51:19;;;;;;;3.77;2.13;;;;;;;7.61;nan;-24029.41;5013730;28;20180;-70
2022/12/25 04:53:46;;;;;;;3.77;2.60;;;;;;;7.60;nan;-24029.25;5013738;28;20183;-73
2022/12/25 04:56:12;;;;;;;2.50;2.30;;;;;;;7.35;nan;-24022.16;5013843;28;20322;-71
2022/12/25 04:58:38;;;;;;;2.50;2.30;;;;;;;7.42;nan;-24024.16;5013981;28;20642;-72
2022/12/25 05:01:04;;;;;;;4.30;2.23;;;;;;;7.08;nan;-24014.78;5013365;28;20176;-71
2022/12/25 05:03:30;;;;;;;4.30;2.13;;;;;;;7.35;nan;-24022.31;5013402;28;20234;-71
2022/12/25 05:05:56;;;;;;;2.47;2.33;;;;;;;7.21;nan;-24018.34;5013249;28;20282;-71
2022/12/25 05:08:21;;;;;;;4.00;2.10;;;;;;;6.62;nan;-24001.88;5013140;28;20214;-69
2022/12/25 05:10:47;;;;;;;2.20;1.90;;;;;;;7.27;nan;-24019.91;5013153;28;20229;-72
2022/12/25 05:13:13;;;;;;;2.97;1.90;;;;;;;7.36;nan;-24022.44;5012709;28;20189;-70
2022/12/25 05:15:40;;;;;;;3.10;2.50;;;;;;;7.10;nan;-24015.34;5013456;28;20282;-72
2022/12/25 05:18:05;;;;;;;5.40;2.87;;;;;;;7.62;nan;-24029.81;5013428;28;20184;-70
2022/12/25 05:20:31;;;;;;;2.13;1.93;;;;;;;7.41;nan;-24023.88;5013033;28;20195;-71
2022/12/25 05:22:56;;;;;;;3.00;2.00;;;;;;;7.60;nan;-24029.25;5013505;28;20168;-71
2022/12/25 05:25:22;;;;;;;3.00;2.57;;;;;;;7.40;nan;-24023.72;5044450;28;20169;-71
2022/12/25 05:27:47;;;;;;;3.57;2.50;;;;;;;7.40;nan;-24023.59;5011409;28;20180;-70
2022/12/25 05:30:13;;;;;;;2.97;2.17;;;;;;;7.35;nan;-24022.16;5012991;28;20620;-70
2022/12/25 05:32:38;;;;;;;2.53;2.33;;;;;;;7.43;nan;-24024.44;5012977;28;20659;-70
2022/12/25 05:35:05;;;;;;;3.37;2.33;;;;;;;5.27;nan;-23963.94;5013412;28;20215;-72
2022/12/25 05:37:30;;;;;;;2.67;1.80;;;;;;;7.49;nan;-24026.28;5013159;28;20199;-70
2022/12/25 05:39:56;;;;;;;4.47;2.43;;;;;;;7.34;nan;-24021.88;5012421;28;20552;-71
2022/12/25 05:42:21;;;;;;;3.30;2.13;;;;;;;6.93;nan;-24010.41;5012525;28;20617;-71
2022/12/25 05:44:46;;;;;;;3.13;2.33;;;;;;;7.23;nan;-24018.75;5012341;28;20238;-71
2022/12/25 05:47:12;;;;;;;3.97;2.50;;;;;;;7.01;nan;-24012.81;5011548;28;20294;-72
2022/12/25 05:49:37;;;;;;;3.20;2.70;;;;;;;6.87;nan;-24008.69;5012573;28;20204;-69
2022/12/25 05:52:03;;;;;;;4.43;3.00;;;;;;;6.90;nan;-24009.69;5012617;28;20176;-70
2022/12/25 05:54:28;;;;;;;2.83;2.43;;;;;;;6.91;nan;-24009.97;5012823;28;20176;-71
2022/12/25 05:56:54;;;;;;;3.97;2.80;;;;;;;7.19;nan;-24017.63;5012177;28;20231;-70
2022/12/25 05:59:19;;;;;;;2.13;2.00;;;;;;;7.39;nan;-24023.31;5012771;28;20160;-71
2022/12/25 06:01:45;;;;;;;3.17;2.43;;;;;;;7.39;nan;-24023.44;5012714;28;20165;-70
2022/12/25 06:04:10;;;;;;;2.93;2.30;;;;;;;7.23;nan;-24018.91;5011584;28;20223;-71
2022/12/25 06:06:36;;;;;;;2.87;2.47;;;;;;;7.12;nan;-24015.66;5012499;28;20227;-70
2022/12/25 06:09:01;;;;;;;3.10;2.20;;;;;;;6.93;nan;-24010.41;5012481;28;20635;-70
2022/12/25 06:11:26;;;;;;;4.03;2.50;;;;;;;6.90;nan;-24009.53;5012368;28;20177;-70
2022/12/25 06:13:52;;;;;;;4.33;2.90;;;;;;;7.26;nan;-24019.63;5012143;28;20659;-70
2022/12/25 06:16:18;;;;;;;2.60;2.37;;;;;;;7.31;nan;-24021.16;5012336;28;20180;-70
2022/12/25 06:18:46;;;;;;;2.73;2.53;;;;;;;7.38;nan;-24023.16;5012203;28;20255;-70
2022/12/25 06:21:13;;;;;;;6.63;2.47;;;;;;;7.43;nan;-24024.56;5012429;28;20226;-71
2022/12/25 06:23:39;;;;;;;6.57;2.53;;;;;;;7.05;nan;-24013.81;5012211;28;20187;-70
2022/12/25 06:26:06;;;;;;;2.40;2.20;;;;;;;7.32;nan;-24021.31;5011895;28;20269;-71
2022/12/25 06:28:31;;;;;;;3.87;2.30;;;;;;;7.36;nan;-24022.59;5012235;28;20238;-71
2022/12/25 06:30:57;;;;;;;4.70;2.87;;;;;;;7.06;nan;-24014.09;5012052;28;20176;-71
2022/12/25 06:33:22;;;;;;;3.60;2.43;;;;;;;7.08;nan;-24014.78;5012514;28;20176;-72
2022/12/25 06:35:48;;;;;;;4.53;2.70;;;;;;;7.32;nan;-24021.47;5018478;28;20632;-71
2022/12/25 06:38:13;;;;;;;3.13;2.57;;;;;;;7.45;nan;-24025.13;5012175;28;20175;-72
2022/12/25 06:40:39;;;;;;;3.30;3.00;;;;;;;7.63;nan;-24029.97;5018783;28;20188;-71
2022/12/25 06:43:04;;;;;;;3.03;2.43;;;;;;;7.76;nan;-24033.78;5014136;28;20180;-71
2022/12/25 06:45:30;;;;;;;5.23;3.47;;;;;;;7.53;nan;-24027.41;5013793;28;20187;-71
2022/12/25 06:47:55;;;;;;;5.10;3.00;;;;;;;7.75;nan;-24033.38;5018933;28;20193;-71
2022/12/25 06:50:20;;;;;;;5.57;3.17;;;;;;;7.83;nan;-24035.78;5011980;28;20184;-71
2022/12/25 06:52:46;;;;;;;8.07;3.37;;;;;;;7.90;nan;-24037.63;5012013;28;20188;-71
2022/12/25 06:55:11;;;;;;;3.03;2.53;;;;;;;7.95;nan;-24039.16;5013967;28;20216;-71
2022/12/25 06:57:37;;;;;;;2.90;2.60;;;;;;;7.75;nan;-24033.38;5014002;28;20183;-72
2022/12/25 07:00:03;;;;;;;3.07;2.77;;;;;;;8.05;nan;-24041.72;5014589;28;20191;-72
2022/12/25 07:02:31;;;;;;;3.23;2.63;;;;;;;8.11;nan;-24043.41;5015891;28;20631;-70
2022/12/25 07:04:58;;;;;;;4.07;2.97;;;;;;;8.08;nan;-24042.72;5013825;28;20223;-70
2022/12/25 07:07:24;;;;;;;2.87;2.33;;;;;;;8.46;nan;-24053.34;5015412;28;20215;-72
2022/12/25 07:09:49;;;;;;;3.77;2.77;;;;;;;8.31;nan;-24049.09;5011429;28;20180;-71
2022/12/25 07:12:20;;;;;;;3.30;2.43;;;;;;;8.33;nan;-24049.66;5011983;28;20290;-70
2022/12/25 07:14:48;;;;;;;3.50;1.97;;;;;;;8.63;nan;-24058.16;5012017;28;20187;-70
2022/12/25 07:17:18;;;;;;;2.87;2.27;;;;;;;8.68;nan;-24059.56;5015419;28;20165;-70
2022/12/25 07:19:45;;;;;;;2.23;2.03;;;;;;;8.63;nan;-24058.16;5020439;28;20313;-70
2022/12/25 07:22:10;;;;;;;3.17;1.93;;;;;;;8.83;nan;-24063.81;5017419;28;20294;-71
2022/12/25 07:24:36;;;;;;;3.80;2.20;;;;;;;8.32;nan;-24049.38;5015619;28;20627;-71
2022/12/25 07:27:01;;;;;;;3.27;2.10;;;;;;;8.96;nan;-24067.19;5017018;28;20747;-73
2022/12/25 07:29:26;;;;;;;3.42;2.20;;;;;;;9.37;nan;-24078.78;5019892;28;20196;-71
2022/12/25 07:31:52;;;;;;;3.05;2.17;;;;;;;9.44;nan;-24080.78;5019580;28;20202;-72
2022/12/25 07:34:18;;;;;;;3.40;2.13;;;;;;;9.17;nan;-24073.13;5018930;28;20210;-72
2022/12/25 07:36:43;;;;;;;3.42;2.25;;;;;;;9.53;nan;-24083.31;5016965;28;20176;-73
2022/12/25 07:39:09;;;;;;;3.10;2.17;;;;;;;9.71;nan;-24088.25;5014791;28;20263;-73
2022/12/25 07:41:35;;;;;;;2.90;2.17;;;;;;;9.62;nan;-24085.84;5015293;28;20176;-72
2022/12/25 07:44:00;;;;;;;3.47;2.20;;;;;;;9.52;nan;-24083.03;5014847;28;20195;-72
2022/12/25 07:46:27;;;;;;;2.67;2.10;;;;;;;9.98;nan;-24095.88;5015441;28;20196;-72
2022/12/25 07:48:52;;;;;;;2.45;2.17;;;;;;;10.02;nan;-24096.88;5014969;28;20178;-72
2022/12/25 07:51:18;;;;;;;4.88;2.25;;;;;;;9.80;nan;-24090.81;5019101;28;20195;-72
2022/12/25 07:53:43;;;;;;;4.03;2.78;;;;;;;10.25;nan;-24103.38;5017014;28;20234;-71
2022/12/25 07:56:17;;;;;;;4.30;2.58;;;;;;;10.29;nan;-24104.50;5014826;28;20635;-72
2022/12/25 07:58:44;;;;;;;3.13;2.53;;;;;;;10.08;nan;-24098.56;5016335;28;20182;-72
2022/12/25 08:01:11;;;;;;;4.70;2.75;;;;;;;10.11;nan;-24099.41;5015001;28;20195;-72
2022/12/25 08:03:37;;;;;;;5.40;2.22;;;;;;;10.05;nan;-24097.72;5021617;28;20297;-70
2022/12/25 08:06:05;;;;;;;3.15;2.53;;;;;;;10.54;nan;-24111.56;5017137;28;20207;-70
2022/12/25 08:08:31;;;;;;;4.18;2.50;;;;;;;10.68;nan;-24115.38;5016629;28;20279;-72
2022/12/25 08:10:56;;;;;;;3.90;2.22;;;;;;;10.79;nan;-24118.47;5019296;28;20271;-72
2022/12/25 08:13:22;;;;;;;3.63;2.40;;;;;;;10.52;nan;-24110.84;5016282;28;20184;-72
2022/12/25 08:15:47;;;;;;;3.33;2.30;;;;;;;10.57;nan;-24112.41;5020867;28;20245;-72
2022/12/25 08:18:13;;;;;;;2.15;1.90;;;;;;;11.01;nan;-24124.53;5012106;28;20331;-72
2022/12/25 08:20:38;;;;;;;2.03;1.80;;;;;;;11.14;nan;-24128.19;5015687;28;20179;-72
2022/12/25 08:23:04;;;;;;;3.53;2.70;;;;;;;10.99;nan;-24123.97;5019794;28;20190;-71
2022/12/25 08:25:30;;;;;;;3.40;2.20;;;;;;;10.92;nan;-24122.00;5014736;28;20184;-70
2022/12/25 08:27:55;;;;;;;2.42;2.22;;;;;;;10.97;nan;-24123.41;5015406;28;20681;-71
2022/12/25 08:30:21;;;;;;;3.08;2.00;;;;;;;10.99;nan;-24124.13;5014256;28;20275;-70
2022/12/25 08:32:47;;;;;;;3.35;2.22;;;;;;;11.08;nan;-24126.50;5018264;28;20235;-71
2022/12/25 08:35:12;;;;;;;2.10;1.90;;;;;;;11.44;nan;-24136.66;5015882;28;20184;-71
2022/12/25 08:37:38;;;;;;;2.53;2.08;;;;;;;11.43;nan;-24136.22;5018277;28;20184;-71
2022/12/25 08:40:05;;;;;;;3.75;2.10;;;;;;;11.56;nan;-24139.75;5013862;28;20180;-70
2022/12/25 08:42:30;;;;;;;2.33;1.90;;;;;;;11.50;nan;-24138.22;5018643;28;20191;-70
2022/12/25 08:44:57;;;;;;;3.55;2.03;;;;;;;11.40;nan;-24135.38;5013667;28;20739;-70
2022/12/25 08:47:22;;;;;;;2.70;1.92;;;;;;;11.36;nan;-24134.41;5013693;28;20199;-70
2022/12/25 08:49:47;;;;;;;2.95;2.08;;;;;;;11.80;nan;-24146.53;5015451;28;20470;-70
2022/12/25 08:52:13;;;;;;;3.00;2.22;;;;;;;11.87;nan;-24148.63;5014218;28;20183;-70
2022/12/25 08:54:38;;;;;;;1.83;1.60;;;;;;;11.84;nan;-24147.78;5019397;28;20258;-70
2022/12/25 08:57:04;;;;;;;1.98;1.63;;;;;;;11.85;nan;-24147.94;5013445;28;20172;-71
2022/12/25 08:59:29;;;;;;;3.63;2.60;;;;;;;10.84;nan;-24119.88;5013698;28;20230;-73
2022/12/25 09:01:55;;;;;;;3.22;1.50;;;;;;;11.75;nan;-24145.25;5013608;28;20686;-72
2022/12/25 09:04:21;;;;;;;1.73;1.40;;;;;;;11.84;nan;-24147.78;5013511;28;20730;-72
2022/12/25 09:06:46;;;;;;;3.42;2.17;;;;;;;12.19;nan;-24157.50;5013684;28;20211;-71
2022/12/25 09:09:11;;;;;;;3.28;1.90;;;;;;;12.23;nan;-24158.63;5013103;28;20184;-71
2022/12/25 09:11:37;;;;;;;2.35;1.70;;;;;;;12.06;nan;-24153.69;5013190;28;20180;-71
2022/12/25 09:14:02;;;;;;;1.42;1.30;;;;;;;12.45;nan;-24164.69;5013407;28;20242;-72
2022/12/25 09:16:28;;;;;;;2.47;1.33;;;;;;;12.59;nan;-24168.47;5013278;28;20299;-72
2022/12/25 09:18:57;;;;;;;2.53;1.75;;;;;;;12.74;nan;-24172.69;5013587;28;20179;-71
2022/12/25 09:21:22;;;;;;;1.98;1.40;;;;;;;12.51;nan;-24166.38;5013466;28;20208;-72
2022/12/25 09:23:48;;;;;;;1.55;1.45;;;;;;;12.77;nan;-24173.69;5013328;28;20211;-72
2022/12/25 09:26:15;;;;;;;1.50;1.40;;;;;;;12.83;nan;-24175.22;5012790;28;20246;-70
2022/12/25 09:28:40;;;;;;;2.50;1.90;;;;;;;12.90;nan;-24177.06;5013041;28;20284;-71
2022/12/25 09:31:06;;;;;;;1.90;1.50;;;;;;;12.78;nan;-24173.81;5013206;28;20267;-72
2022/12/25 09:33:31;;;;;;;2.00;1.80;;;;;;;12.90;nan;-24177.06;5012657;28;20577;-72
2022/12/25 09:36:05;;;;;;;1.48;1.38;;;;;;;13.08;nan;-24182.13;5013070;28;20224;-71
2022/12/25 09:38:31;;;;;;;2.47;1.67;;;;;;;13.26;nan;-24187.31;5012936;28;20702;-71
2022/12/25 09:41:27;;;;;;;1.65;1.40;;;;;;;13.15;nan;-24184.09;5012972;28;20522;-71
2022/12/25 09:43:59;;;;;;;2.00;1.73;;;;;;;12.91;nan;-24177.34;5012048;28;20568;-71
2022/12/25 09:46:31;;;;;;;1.38;1.27;;;;;;;13.20;nan;-24185.63;5012653;28;20217;-72
2022/12/25 09:49:14;;;;;;;3.15;1.70;;;;;;;13.08;nan;-24182.25;5012680;28;20182;-72
2022/12/25 09:51:42;;;;;;;1.67;1.58;;;;;;;12.86;nan;-24176.06;5012314;28;20226;-72
2022/12/25 09:54:43;;;;;;;1.85;1.63;;;;;;;13.28;nan;-24187.75;5014324;28;20565;-72
2022/12/25 09:57:12;;;;;;;2.00;1.55;;;;;;;13.15;nan;-24184.22;5003522;28;20207;-71
2022/12/25 09:59:38;;;;;;;1.65;1.50;;;;;;;13.44;nan;-24192.09;5014466;28;20207;-72
2022/12/25 10:02:45;;;;;;;1.85;1.50;;;;;;;13.52;nan;-24194.47;5017357;28;20187;-72
2022/12/25 10:05:49;;;;;;;2.63;1.70;;;;;;;13.46;nan;-24192.66;4997702;28;20204;-72
2022/12/25 10:08:40;;;;;;;1.65;1.55;;;;;;;13.54;nan;-24194.91;5000734;28;20203;-72
2022/12/25 10:11:24;;;;;;;3.03;2.33;;;;;;;13.53;nan;-24194.75;4998304;28;20281;-71
2022/12/25 10:13:58;;;;;;;2.05;1.70;;;;;;;13.67;nan;-24198.56;5017912;28;20279;-71
2022/12/25 10:17:05;;;;;;;1.73;1.63;;;;;;;13.76;nan;-24201.09;5007649;28;20183;-71
2022/12/25 10:19:35;;;;;;;1.58;1.35;;;;;;;13.88;nan;-24204.44;5017286;28;20180;-70
2022/12/25 10:22:09;;;;;;;3.78;1.60;;;;;;;13.80;nan;-24202.19;5016733;28;20276;-72
2022/12/25 10:24:45;;;;;;;1.98;1.65;;;;;;;13.89;nan;-24204.72;5011923;28;20215;-72
2022/12/25 10:27:18;;;;;;;2.17;1.48;;;;;;;13.79;nan;-24201.91;5009383;28;20586;-70
2022/12/25 10:29:48;;;;;;;1.58;1.48;;;;;;;14.02;nan;-24208.38;5011468;28;20615;-71
2022/12/25 10:32:14;;;;;;;1.95;1.38;;;;;;;14.04;nan;-24208.94;5014490;28;20245;-72
2022/12/25 10:34:42;;;;;;;1.70;1.52;;;;;;;14.02;nan;-24208.38;5011959;28;20183;-70
2022/12/25 10:37:10;;;;;;;1.60;1.40;;;;;;;13.96;nan;-24206.69;5013919;28;20282;-70
2022/12/25 10:39:36;;;;;;;1.45;1.35;;;;;;;14.20;nan;-24213.16;5014007;28;20180;-71
2022/12/25 10:42:29;;;;;;;1.30;1.17;;;;;;;14.38;nan;-24218.22;5016637;28;20194;-72
2022/12/25 10:45:00;;;;;;;3.00;1.60;;;;;;;14.08;nan;-24209.91;5019163;28;20184;-71
2022/12/25 10:47:31;;;;;;;3.22;1.65;;;;;;;14.04;nan;-24208.94;5015829;28;20196;-71
2022/12/25 10:49:58;;;;;;;1.70;1.48;;;;;;;14.47;nan;-24220.88;5017337;28;20663;-72
2022/12/25 10:52:26;;;;;;;1.63;1.45;;;;;;;14.63;nan;-24225.22;5022568;28;20187;-72
2022/12/25 10:54:52;;;;;;;2.13;1.65;;;;;;;14.65;nan;-24225.63;5022541;28;20568;-72
2022/12/25 10:57:20;;;;;;;1.42;1.30;;;;;;;14.52;nan;-24222.13;5019811;28;20179;-72
2022/12/25 10:59:50;;;;;;;1.25;1.15;;;;;;;14.94;nan;-24233.75;5020754;28;20757;-71
2022/12/25 11:02:20;;;;;;;1.30;1.20;;;;;;;;;;5020849;28;20241;-72
2022/12/25 11:04:45;;;;;;;5.05;1.33;;;;;;;;;;5016527;28;20674;-72
2022/12/25 11:07:16;;;;;;;1.20;1.10;;;;;;;14.99;nan;-24235.31;5021159;28;20206;-71
2022/12/25 11:09:57;;;;;;;1.35;1.25;;;;;;;14.89;nan;-24232.50;5017877;28;20184;-70
2022/12/25 11:12:44;;;;;;;1.27;1.17;;;;;;;14.68;nan;-24226.47;5022127;28;20198;-71
2022/12/25 11:15:30;;;;;;;1.60;1.50;;;;;;;14.96;nan;-24234.47;5015649;28;20237;-71
2022/12/25 11:17:56;;;;;;;1.30;1.10;;;;;;;15.05;nan;-24236.84;5019801;28;20184;-71
2022/12/25 11:20:22;;;;;;;0.95;0.93;;;;;;;14.86;nan;-24231.66;5019855;28;20609;-71
2022/12/25 11:22:50;;;;;;;1.15;1.05;;;;;;;15.03;nan;-24236.44;5020762;28;20183;-71
2022/12/25 11:25:24;;;;;;;1.33;1.23;;;;;;;14.85;nan;-24231.38;5018036;28;20714;-72
2022/12/25 11:28:03;;;;;;;1.10;1.05;;;;;;;14.96;nan;-24234.47;5023896;28;20729;-70
2022/12/25 11:30:32;;;;;;;1.52;1.25;;;;;;;14.72;nan;-24227.75;5014482;28;20593;-71
2022/12/25 11:33:03;;;;;;;1.50;1.40;;;;;;;14.91;nan;-24232.94;4998091;28;20169;-70
2022/12/25 11:35:46;;;;;;;1.30;1.20;;;;;;;15.05;nan;-24236.84;5015325;28;20179;-71
2022/12/25 11:38:11;;;;;;;1.30;1.20;;;;;;;14.99;nan;-24235.31;5015194;28;20179;-70
2022/12/25 11:40:51;;;;;;;1.30;1.20;;;;;;;15.06;nan;-24237.13;5014914;28;20249;-70
2022/12/25 11:43:28;;;;;;;1.30;1.20;;;;;;;15.22;nan;-24241.59;5014772;28;20682;-70
2022/12/25 11:45:55;;;;;;;1.35;1.10;;;;;;;;;;5013273;28;20235;-70
2022/12/25 11:48:44;;;;;;;1.42;1.20;;;;;;;15.26;nan;-24242.59;5014830;28;20757;-70
2022/12/25 11:51:11;;;;;;;3.15;1.38;;;;;;;15.25;nan;-24242.31;5014687;28;20168;-70
2022/12/25 11:53:42;;;;;;;1.30;1.20;;;;;;;15.16;nan;-24239.78;5014819;28;20176;-71
2022/12/25 11:56:13;;;;;;;1.38;1.10;;;;;;;14.96;nan;-24234.47;5014857;28;20166;-71
2022/12/25 11:58:43;;;;;;;1.20;1.10;;;;;;;15.11;nan;-24238.38;5014798;28;20164;-70
2022/12/25 12:01:18;;;;;;;1.20;1.10;;;;;;;15.37;nan;-24245.66;5012588;28;20242;-71
2022/12/25 12:03:44;;;;;;;1.70;1.30;;;;;;;15.16;nan;-24239.78;5014055;28;20249;-70
2022/12/25 12:06:15;;;;;;;1.77;1.35;;;;;;;15.04;nan;-24236.56;5014353;28;20308;-71
2022/12/25 12:08:41;;;;;;;1.20;1.10;;;;;;;15.26;nan;-24242.59;5014967;28;20176;-71
2022/12/25 12:11:39;;;;;;;1.38;1.23;;;;;;;15.20;nan;-24240.91;5014572;28;20176;-70
2022/12/25 12:14:18;;;;;;;1.67;1.17;;;;;;;14.98;nan;-24235.03;5012897;28;20712;-70
2022/12/25 12:16:44;;;;;;;1.38;1.27;;;;;;;15.03;nan;-24236.28;5014297;28;20203;-71
2022/12/25 12:19:25;;;;;;;2.65;1.60;;;;;;;14.97;nan;-24234.75;5014093;28;20199;-71
2022/12/25 12:21:54;;;;;;;1.38;1.27;;;;;;;14.83;nan;-24230.81;5014461;28;20183;-72
2022/12/25 12:24:22;;;;;;;1.20;1.10;;;;;;;14.93;nan;-24233.63;5014552;28;20628;-71
2022/12/25 12:27:03;;;;;;;1.50;1.33;;;;;;;15.04;nan;-24236.72;5014154;28;20612;-73
2022/12/25 12:29:38;;;;;;;1.13;1.10;;;;;;;14.84;nan;-24230.97;5014311;28;20623;-70
2022/12/25 12:32:19;;;;;;;1.10;1.10;;;;;;;15.07;nan;-24237.28;5014364;28;20243;-71
2022/12/25 12:34:48;;;;;;;1.25;1.13;;;;;;;14.70;nan;-24227.19;5014013;28;20184;-71
2022/12/25 12:37:29;;;;;;;1.70;1.20;;;;;;;15.04;nan;-24236.72;5013668;28;20179;-71
2022/12/25 12:39:55;;;;;;;1.30;1.20;;;;;;;14.97;nan;-24234.75;5014525;28;20173;-71
2022/12/25 12:42:47;;;;;;;0.98;0.98;;;;;;;14.96;nan;-24234.31;5014236;28;20263;-71
2022/12/25 12:45:22;;;;;;;1.27;1.17;;;;;;;14.59;nan;-24224.22;5014021;28;20172;-71
2022/12/25 12:47:49;;;;;;;1.13;1.02;;;;;;;14.88;nan;-24232.09;5013830;28;20203;-72
2022/12/25 12:50:38;;;;;;;2.17;1.70;;;;;;;14.91;nan;-24233.06;5014109;28;20647;-71
2022/12/25 12:53:22;;;;;;;1.30;1.20;;;;;;;15.03;nan;-24236.28;5013915;28;20263;-71
2022/12/25 12:55:48;;;;;;;1.92;1.23;;;;;;;14.73;nan;-24228.03;5013833;28;20543;-71
2022/12/25 12:58:33;;;;;;;1.35;1.20;;;;;;;15.00;nan;-24235.59;5013328;28;20187;-71
2022/12/25 13:01:14;;;;;;;1.30;1.20;;;;;;;14.97;nan;-24234.75;5013672;28;20176;-71
2022/12/25 13:03:49;;;;;;;1.58;1.27;;;;;;;15.11;nan;-24238.38;5013319;28;20228;-73
2022/12/25 13:06:26;;;;;;;1.45;1.30;;;;;;;14.89;nan;-24232.50;5013601;28;20196;-70
2022/12/25 13:09:23;;;;;;;0.93;0.93;;;;;;;14.83;nan;-24230.81;5013452;28;20187;-71
2022/12/25 13:11:48;;;;;;;1.95;1.40;;;;;;;14.63;nan;-24225.22;5013375;28;20164;-72
2022/12/25 13:14:17;;;;;;;1.23;1.13;;;;;;;14.66;nan;-24226.06;5013328;28;20647;-71
2022/12/25 13:16:45;;;;;;;1.55;1.45;;;;;;;14.69;nan;-24226.75;5013349;28;20266;-70
2022/12/25 13:19:29;;;;;;;1.50;1.20;;;;;;;14.87;nan;-24231.81;5012988;28;20241;-69
2022/12/25 13:21:59;;;;;;;1.40;1.13;;;;;;;14.53;nan;-24222.41;5013108;28;20164;-70
2022/12/25 13:24:27;;;;;;;1.60;1.40;;;;;;;14.66;nan;-24226.06;5011519;28;20606;-70
2022/12/25 13:26:52;;;;;;;1.58;1.27;;;;;;;14.62;nan;-24224.94;5013275;28;20191;-72
2022/12/25 13:29:32;;;;;;;2.72;1.58;;;;;;;14.38;nan;-24218.22;5012744;28;20533;-69
2022/12/25 13:31:59;;;;;;;2.45;1.63;;;;;;;14.49;nan;-24221.28;5012762;28;20176;-70
2022/12/25 13:34:34;;;;;;;1.77;1.38;;;;;;;14.47;nan;-24220.72;5012650;28;20581;-71
2022/12/25 13:37:08;;;;;;;1.95;1.20;;;;;;;14.37;nan;-24218.06;5012773;28;20166;-70
2022/12/25 13:39:36;;;;;;;2.17;1.30;;;;;;;14.41;nan;-24219.03;5012916;28;20176;-70
2022/12/25 13:42:05;;;;;;;1.60;1.30;;;;;;;14.33;nan;-24216.81;5012551;28;20537;-70
2022/12/25 13:44:44;;;;;;;4.70;1.50;;;;;;;14.23;nan;-24214.13;5012869;28;20631;-69